Time;durP1;ratioP1;P1;durP2;ratioP2;P2;SDS_P1;SDS_P2;PMS_P1;PMS_P2;Temp;Humidity;BMP_temperature;BMP_pressure;BME280_temperature;BME280_humidity;BME280_pressure;Samples;Min_cycle;Max_cycle;Signal;HPM_P1;HPM_P2
2023/03/03 14:49:30;;;;;;;;;17.00;13.20;;;;;;;;5104094;27;13421;-72
2023/03/03 14:52:02;;;;;;;;;17.25;17.25;;;;;;;;5104815;27;13542;-71
2023/03/03 14:54:32;;;;;;;;;18.60;15.20;;;;;;;;5099141;27;13532;-71
2023/03/03 14:56:57;;;;;;;;;11.00;11.00;;;;;;;;5040820;28;13555;-70
2023/03/03 14:59:24;;;;;;;;;14.00;14.00;;;;;;;;5023343;28;13614;-74
2023/03/03 15:02:09;;;;;;;;;15.40;12.60;;;;;;;;5022492;28;13544;-72
2023/03/03 15:04:35;;;;;;;;;13.25;12.75;;;;;;;;5021714;28;13630;-72
2023/03/03 15:07:13;;;;;;;;;17.50;13.50;;;;;;;;5023135;28;13468;-72
2023/03/03 15:09:41;;;;;;;;;19.50;18.00;;;;;;;;5023097;28;13656;-69
2023/03/03 15:12:19;;;;;;;;;15.50;12.75;;;;;;;;5024084;28;13582;-68
2023/03/03 15:14:46;;;;;;;;;14.50;10.75;;;;;;;;5022089;28;12518;-69
2023/03/03 15:17:31;;;;;;;;;11.25;11.00;;;;;;;;5023245;28;11635;-71
2023/03/03 15:20:12;;;;;;;;;8.00;8.00;;;;;;;;5031106;28;11496;-71
2023/03/03 15:22:45;;;;;;;;;11.00;11.00;;;;;;;;5046931;28;11439;-71
2023/03/03 15:25:16;;;;;;;;;14.50;10.75;;;;;;;;5047079;28;11433;-69
2023/03/03 15:27:44;;;;;;;;;15.00;13.00;;;;;;;;5045679;28;11574;-69
2023/03/03 15:30:09;;;;;;;;;13.50;12.00;;;;;;;;5045530;28;11567;-68
2023/03/03 15:32:34;;;;;;;;;11.50;10.50;;;;;;;;5046771;28;11487;-73
2023/03/03 15:35:05;;;;;;;;;13.50;10.75;;;;;;;;5045978;28;8993;-71
2023/03/03 15:37:30;;;;;;;;;11.50;11.00;;;;;;;;5045353;28;8807;-70
2023/03/03 15:40:15;;;;;;;;;12.00;9.50;;;;;;;;5046755;28;11715;-70
2023/03/03 15:43:01;;;;;;;;;10.75;7.25;;;;;;;;5041008;28;8897;-70
2023/03/03 15:45:26;;;;;;;;;13.00;10.00;;;;;;;;5006064;28;11524;-70
2023/03/03 15:48:00;;;;;;;;;11.50;10.00;;;;;;;;5006859;28;11598;-69
2023/03/03 15:50:25;;;;;;;;;;;;;;;;;;5024718;28;8825;-71
2023/03/03 15:52:55;;;;;;;;;13.40;13.20;;;;;;;;5004741;28;8827;-69
2023/03/03 15:55:20;;;;;;;;;;;;;;;;;;5008170;28;8813;-73
2023/03/03 15:58:04;;;;;;;;;11.20;11.20;;;;;;;;5006693;28;7584;-70
2023/03/03 16:00:35;;;;;;;;;12.00;11.75;;;;;;;;4994863;28;8797;-69
2023/03/03 16:03:01;;;;;;;;;;;;;;;;;;4995481;28;11541;-69
2023/03/03 16:05:26;;;;;;;;;;;;;;;;;;4994043;28;8801;-69
2023/03/03 16:07:54;;;;;;;;;6.40;5.80;;;;;;;;4993296;28;7990;-68
2023/03/03 16:10:23;;;;;;;;;12.50;10.75;;;;;;;;4993270;28;8805;-68
2023/03/03 16:12:48;;;;;;;;;;;;;;;;;;4999340;28;11557;-69
2023/03/03 16:15:13;;;;;;;;;11.75;10.50;;;;;;;;5011413;28;8837;-69
2023/03/03 16:17:44;;;;;;;;;13.75;11.25;;;;;;;;5012618;28;8984;-69
2023/03/03 16:20:10;;;;;;;;;13.50;11.75;;;;;;;;5012791;28;8903;-69
2023/03/03 16:22:35;;;;;;;;;;;;;;;;;;5015579;28;11519;-69
2023/03/03 16:25:00;;;;;;;;;12.00;9.60;;;;;;;;5011877;28;8844;-69
2023/03/03 16:27:34;;;;;;;;;16.50;12.00;;;;;;;;5028273;28;8976;-69
2023/03/03 16:29:59;;;;;;;;;;;;;;;;;;5015077;28;8809;-69
2023/03/03 16:32:35;;;;;;;;;14.60;11.00;;;;;;;;5012876;28;8790;-69
2023/03/03 16:35:00;;;;;;;;;;;;;;;;;;5015550;28;8829;-69
2023/03/03 16:37:25;;;;;;;;;;;;;;;;;;5014954;28;7533;-69
2023/03/03 16:39:51;;;;;;;;;10.75;10.00;;;;;;;;5011316;28;8818;-68
2023/03/03 16:42:20;;;;;;;;;;;;;;;;;;5030568;28;8802;-69
2023/03/03 16:44:48;;;;;;;;;13.00;10.75;;;;;;;;5012748;28;8824;-69
2023/03/03 16:47:42;;;;;;;;;10.25;10.00;;;;;;;;5012432;28;11556;-70
2023/03/03 16:50:25;;;;;;;;;11.25;9.75;;;;;;;;4970924;28;11682;-69
2023/03/03 16:52:50;;;;;;;;;;;;;;;;;;4973257;28;11503;-69
2023/03/03 16:55:15;;;;;;;;;;;;;;;;;;4973693;28;8829;-69
2023/03/03 16:57:59;;;;;;;;;15.50;13.00;;;;;;;;4970689;28;8915;-69
2023/03/03 17:00:29;;;;;;;;;12.75;10.75;;;;;;;;4970860;28;8822;-69
2023/03/03 17:02:57;;;;;;;;;16.50;13.75;;;;;;;;4970743;28;11527;-69
2023/03/03 17:05:37;;;;;;;;;14.75;10.00;;;;;;;;4970857;28;11515;-68
2023/03/03 17:08:11;;;;;;;;;14.25;12.75;;;;;;;;4970967;28;11536;-69
2023/03/03 17:10:40;;;;;;;;;17.25;14.25;;;;;;;;4970353;28;11507;-68
2023/03/03 17:13:05;;;;;;;;;14.50;14.50;;;;;;;;4970177;28;11631;-68
2023/03/03 17:15:49;;;;;;;;;8.75;8.75;;;;;;;;4970146;28;11501;-68
2023/03/03 17:18:35;;;;;;;;;18.50;11.50;;;;;;;;4970715;28;8905;-68
2023/03/03 17:21:01;;;;;;;;;12.25;10.25;;;;;;;;4970695;28;11600;-68
2023/03/03 17:23:44;;;;;;;;;12.00;9.25;;;;;;;;4970435;28;11519;-68
2023/03/03 17:26:09;;;;;;;;;15.75;12.50;;;;;;;;4977892;28;11593;-68
2023/03/03 17:28:35;;;;;;;;;;;;;;;;;;4993201;28;11569;-70
2023/03/03 17:31:03;;;;;;;;;15.00;12.40;;;;;;;;4992206;28;7514;-68
2023/03/03 17:33:28;;;;;;;;;;;;;;;;;;4994304;28;8805;-69
2023/03/03 17:35:58;;;;;;;;;13.25;13.25;;;;;;;;4992060;28;7541;-69
2023/03/03 17:38:35;;;;;;;;;15.25;14.25;;;;;;;;4992726;28;8828;-70
2023/03/03 17:41:01;;;;;;;;;12.50;11.00;;;;;;;;4990601;28;11581;-70
2023/03/03 17:43:26;;;;;;;;;18.00;14.50;;;;;;;;5000363;28;11533;-69
2023/03/03 17:45:51;;;;;;;;;;;;;;;;;;5014270;28;8822;-69
2023/03/03 17:48:17;;;;;;;;;;;;;;;;;;5013174;28;7628;-70
2023/03/03 17:50:42;;;;;;;;;;;;;;;;;;5013859;28;8811;-69
2023/03/03 17:53:07;;;;;;;;;;;;;;;;;;5012886;28;7518;-70
2023/03/03 17:55:32;;;;;;;;;;;;;;;;;;5013084;28;8810;-69
2023/03/03 17:58:05;;;;;;;;;13.20;12.40;;;;;;;;5010180;28;7525;-70
2023/03/03 18:00:31;;;;;;;;;17.00;14.00;;;;;;;;5007798;28;13682;-68
2023/03/03 18:02:56;;;;;;;;;20.00;15.00;;;;;;;;5009763;28;11548;-70
2023/03/03 18:05:21;;;;;;;;;;;;;;;;;;5012723;28;8919;-70
2023/03/03 18:07:46;;;;;;;;;;;;;;;;;;5013524;28;8838;-71
2023/03/03 18:10:11;;;;;;;;;;;;;;;;;;5012541;28;7636;-69
2023/03/03 18:12:36;;;;;;;;;;;;;;;;;;5012767;28;7517;-68
2023/03/03 18:15:01;;;;;;;;;;;;;;;;;;5009296;28;9330;-71
2023/03/03 18:17:27;;;;;;;;;;;;;;;;;;5016561;28;10582;-69
2023/03/03 18:19:55;;;;;;;;;;;;;;;;;;5016722;28;9886;-70
2023/03/03 18:22:20;;;;;;;;;;;;;;;;;;5013204;28;7560;-72
2023/03/03 18:24:45;;;;;;;;;;;;;;;;;;5010858;28;7587;-72
2023/03/03 18:27:10;;;;;;;;;;;;;;;;;;5013548;28;8802;-72
2023/03/03 18:29:36;;;;;;;;;18.60;17.20;;;;;;;;5010378;28;7522;-71
2023/03/03 18:32:03;;;;;;;;;20.60;19.60;;;;;;;;5006855;28;13573;-70
2023/03/03 18:34:28;;;;;;;;;29.80;17.60;;;;;;;;5011730;28;13657;-71
2023/03/03 18:36:58;;;;;;;;;25.25;25.25;;;;;;;;5026692;28;13699;-72
2023/03/03 18:39:40;;;;;;;;;28.25;23.00;;;;;;;;5015853;28;13756;-71
2023/03/03 18:44:23;;;;;;;;;20.25;14.50;;;;;;;;5103795;27;13625;-73
2023/03/03 18:46:50;;;;;;;;;20.75;13.50;;;;;;;;5084925;28;11697;-73
2023/03/03 18:49:16;;;;;;;;;17.25;14.00;;;;;;;;5084105;28;11551;-73
2023/03/03 18:51:41;;;;;;;;;20.00;13.50;;;;;;;;5087545;28;11605;-73
2023/03/03 18:54:21;;;;;;;;;9.75;7.00;;;;;;;;5086734;28;9560;-73
2023/03/03 18:56:49;;;;;;;;;13.50;11.75;;;;;;;;5087767;28;8940;-72
2023/03/03 18:59:29;;;;;;;;;16.50;15.50;;;;;;;;5085706;28;11691;-72
2023/03/03 19:02:13;;;;;;;;;24.50;20.50;;;;;;;;5087271;28;11496;-73
2023/03/03 19:04:40;;;;;;;;;22.50;18.00;;;;;;;;5086307;28;11511;-73
2023/03/03 19:07:32;;;;;;;;;24.50;21.00;;;;;;;;5087437;28;11610;-72
2023/03/03 19:10:00;;;;;;;;;26.00;23.00;;;;;;;;5075509;28;11531;-71
2023/03/03 19:12:54;;;;;;;;;26.50;25.00;;;;;;;;5087072;28;11514;-71
2023/03/03 19:15:29;;;;;;;;;20.00;18.00;;;;;;;;5067015;28;11459;-71
2023/03/03 19:18:03;;;;;;;;;21.75;18.75;;;;;;;;5087249;28;11501;-71
2023/03/03 19:20:39;;;;;;;;;25.25;23.50;;;;;;;;5085921;28;11542;-71
2023/03/03 19:23:07;;;;;;;;;21.50;18.25;;;;;;;;5086781;28;11540;-73
2023/03/03 19:25:32;;;;;;;;;44.33;37.33;;;;;;;;5023201;28;11518;-72
2023/03/03 19:27:58;;;;;;;;;25.00;15.50;;;;;;;;5056164;28;12851;-72
2023/03/03 19:30:44;;;;;;;;;21.25;16.25;;;;;;;;5044516;28;8796;-73
2023/03/03 19:33:29;;;;;;;;;20.00;17.25;;;;;;;;5044619;28;8808;-74
2023/03/03 19:35:54;;;;;;;;;19.25;15.75;;;;;;;;5044550;28;11678;-73
2023/03/03 19:38:34;;;;;;;;;17.25;16.00;;;;;;;;5044729;28;11605;-72
2023/03/03 19:41:13;;;;;;;;;16.75;15.75;;;;;;;;5045091;28;8930;-72
2023/03/03 19:44:00;;;;;;;;;20.50;18.25;;;;;;;;5045526;28;11555;-73
2023/03/03 19:46:26;;;;;;;;;25.00;19.75;;;;;;;;5046390;28;11534;-71
2023/03/03 19:48:54;;;;;;;;;23.00;16.00;;;;;;;;5046213;28;12367;-74
2023/03/03 19:51:25;;;;;;;;;18.75;18.25;;;;;;;;5045095;28;8823;-74
2023/03/03 19:53:50;;;;;;;;;18.00;16.00;;;;;;;;5043085;28;11728;-73
2023/03/03 19:56:22;;;;;;;;;21.00;18.25;;;;;;;;5032656;28;11628;-69
2023/03/03 19:58:50;;;;;;;;;15.00;15.00;;;;;;;;5031704;28;8827;-72
2023/03/03 20:01:28;;;;;;;;;17.50;16.50;;;;;;;;5031866;28;11538;-72
2023/03/03 20:04:12;;;;;;;;;17.00;16.50;;;;;;;;5031308;28;11572;-73
2023/03/03 20:06:52;;;;;;;;;19.50;18.00;;;;;;;;5030926;28;11505;-72
2023/03/03 20:09:35;;;;;;;;;18.25;15.00;;;;;;;;5032370;28;11652;-72
2023/03/03 20:12:19;;;;;;;;;20.00;15.00;;;;;;;;5032207;28;11552;-72
2023/03/03 20:14:48;;;;;;;;;17.75;13.50;;;;;;;;5031839;28;11518;-72
2023/03/03 20:17:14;;;;;;;;;16.50;16.00;;;;;;;;5031899;28;11544;-73
2023/03/03 20:19:39;;;;;;;;;15.25;14.00;;;;;;;;5032197;28;12269;-74
2023/03/03 20:22:21;;;;;;;;;16.00;12.50;;;;;;;;5032504;28;9499;-72
2023/03/03 20:25:14;;;;;;;;;23.50;17.50;;;;;;;;5031387;28;8811;-71
2023/03/03 20:27:39;;;;;;;;;18.25;18.00;;;;;;;;5014691;28;11544;-71
2023/03/03 20:30:12;;;;;;;;;24.75;21.75;;;;;;;;5030879;28;11624;-73
2023/03/03 20:32:39;;;;;;;;;24.00;23.25;;;;;;;;5031215;28;8819;-72
2023/03/03 20:35:24;;;;;;;;;33.00;27.00;;;;;;;;5032256;28;11568;-72
2023/03/03 20:38:07;;;;;;;;;27.25;24.50;;;;;;;;5031833;28;11545;-72
2023/03/03 20:40:41;;;;;;;;;28.25;27.00;;;;;;;;5032342;28;11579;-71
2023/03/03 20:43:12;;;;;;;;;29.75;25.00;;;;;;;;5031911;28;11606;-72
2023/03/03 20:45:37;;;;;;;;;24.25;22.00;;;;;;;;5030205;28;11607;-71
2023/03/03 20:48:03;;;;;;;;;32.67;27.00;;;;;;;;5031494;28;11616;-72
2023/03/03 20:50:36;;;;;;;;;32.67;28.00;;;;;;;;5031852;28;8847;-72
2023/03/03 20:53:12;;;;;;;;;37.00;28.00;;;;;;;;5030541;28;8861;-72
2023/03/03 20:55:38;;;;;;;;;33.00;29.33;;;;;;;;5030058;28;11572;-71
2023/03/03 20:58:09;;;;;;;;;25.67;24.67;;;;;;;;5029889;28;12402;-72
2023/03/03 21:00:39;;;;;;;;;19.33;16.33;;;;;;;;5028237;28;8807;-72
2023/03/03 21:03:09;;;;;;;;;34.33;27.00;;;;;;;;5028743;28;12938;-71
2023/03/03 21:05:37;;;;;;;;;34.00;27.33;;;;;;;;5029572;28;11579;-72
2023/03/03 21:08:03;;;;;;;;;26.33;24.00;;;;;;;;5029694;28;11654;-71
2023/03/03 21:10:30;;;;;;;;;34.00;28.67;;;;;;;;5030723;28;11570;-74
2023/03/03 21:12:57;;;;;;;;;29.33;27.00;;;;;;;;5027877;28;12417;-72
2023/03/03 21:15:30;;;;;;;;;32.33;23.33;;;;;;;;5028311;28;12338;-72
2023/03/03 21:17:57;;;;;;;;;28.00;24.33;;;;;;;;5030369;28;11555;-72
2023/03/03 21:20:34;;;;;;;;;21.33;21.33;;;;;;;;5030279;28;11575;-71
2023/03/03 21:23:01;;;;;;;;;29.50;26.50;;;;;;;;5029226;28;11557;-72
2023/03/03 21:25:41;;;;;;;;;33.33;30.00;;;;;;;;5029261;28;11535;-72
2023/03/03 21:28:19;;;;;;;;;19.33;17.33;;;;;;;;5029396;28;11579;-72
2023/03/03 21:31:04;;;;;;;;;20.75;17.50;;;;;;;;5029156;28;11607;-70
2023/03/03 21:33:49;;;;;;;;;17.00;15.00;;;;;;;;5025446;28;11529;-71
2023/03/03 21:36:34;;;;;;;;;23.25;21.00;;;;;;;;5030362;28;11639;-71
2023/03/03 21:39:01;;;;;;;;;26.25;20.50;;;;;;;;5029180;28;11531;-71
2023/03/03 21:41:26;;;;;;;;;27.00;23.00;;;;;;;;5032360;28;11527;-72
2023/03/03 21:43:52;;;;;;;;;8.67;8.67;;;;;;;;5031079;28;12450;-71
2023/03/03 21:46:22;;;;;;;;;21.25;20.50;;;;;;;;5030250;28;8974;-71
2023/03/03 21:48:47;;;;;;;;;25.00;21.00;;;;;;;;5030179;28;8803;-71
2023/03/03 21:51:13;;;;;;;;;23.75;18.25;;;;;;;;5029869;28;12386;-71
2023/03/03 21:53:39;;;;;;;;;20.75;17.75;;;;;;;;5031447;28;8895;-71
2023/03/03 21:56:04;;;;;;;;;29.00;20.50;;;;;;;;5028540;28;8811;-70
2023/03/03 21:58:29;;;;;;;;;22.25;17.00;;;;;;;;5029509;28;11539;-70
2023/03/03 22:00:55;;;;;;;;;13.25;13.00;;;;;;;;5029836;28;8795;-71
2023/03/03 22:03:20;;;;;;;;;23.50;17.00;;;;;;;;5029978;28;8839;-73
2023/03/03 22:05:47;;;;;;;;;24.50;17.00;;;;;;;;5030176;28;8940;-79
2023/03/03 22:08:13;;;;;;;;;20.75;16.75;;;;;;;;5028909;28;8804;-71
2023/03/03 22:10:38;;;;;;;;;15.50;15.50;;;;;;;;5029997;28;12226;-73
2023/03/03 22:13:03;;;;;;;;;17.00;14.00;;;;;;;;5030277;28;8815;-73
2023/03/03 22:15:32;;;;;;;;;29.33;19.33;;;;;;;;5029110;28;8846;-73
2023/03/03 22:17:57;;;;;;;;;32.50;23.00;;;;;;;;5030226;28;8812;-72
2023/03/03 22:20:22;;;;;;;;;42.67;34.33;;;;;;;;5030269;28;11550;-73
2023/03/03 22:22:47;;;;;;;;;26.00;24.33;;;;;;;;5030249;28;8816;-73
2023/03/03 22:25:13;;;;;;;;;23.25;14.75;;;;;;;;5030099;28;9597;-74
2023/03/03 22:27:38;;;;;;;;;17.25;16.00;;;;;;;;5030292;28;8873;-73
2023/03/03 22:30:03;;;;;;;;;16.00;14.00;;;;;;;;5029855;28;8830;-73
2023/03/03 22:32:29;;;;;;;;;17.50;14.00;;;;;;;;5029898;28;8812;-72
2023/03/03 22:34:54;;;;;;;;;12.50;12.50;;;;;;;;5030189;28;8891;-73
2023/03/03 22:37:19;;;;;;;;;12.75;12.75;;;;;;;;5030820;28;8796;-82
2023/03/03 22:39:45;;;;;;;;;13.75;13.25;;;;;;;;5045797;28;8831;-77
2023/03/03 22:42:10;;;;;;;;;18.75;13.50;;;;;;;;5029743;28;8811;-73
2023/03/03 22:44:35;;;;;;;;;24.00;15.75;;;;;;;;5029574;28;9608;-73
2023/03/03 22:47:01;;;;;;;;;14.75;13.50;;;;;;;;5030023;28;8819;-74
2023/03/03 22:49:26;;;;;;;;;17.25;15.25;;;;;;;;5025359;28;9062;-73
2023/03/03 22:51:52;;;;;;;;;17.75;13.00;;;;;;;;5059237;28;8908;-73
2023/03/03 22:54:17;;;;;;;;;16.75;13.50;;;;;;;;5029704;28;8938;-72
2023/03/03 22:56:42;;;;;;;;;16.00;16.00;;;;;;;;5029925;28;8823;-73
2023/03/03 22:59:07;;;;;;;;;15.50;13.50;;;;;;;;5028418;28;8827;-72
2023/03/03 23:01:32;;;;;;;;;10.50;10.50;;;;;;;;5029757;28;8819;-73
2023/03/03 23:03:58;;;;;;;;;10.25;7.00;;;;;;;;5028482;28;8848;-73
2023/03/03 23:06:23;;;;;;;;;11.00;8.00;;;;;;;;5030393;28;8823;-72
2023/03/03 23:08:48;;;;;;;;;13.00;13.00;;;;;;;;5030093;28;8796;-72
2023/03/03 23:11:13;;;;;;;;;15.00;13.75;;;;;;;;5028366;28;8807;-72
2023/03/03 23:13:39;;;;;;;;;13.00;13.00;;;;;;;;5029070;28;8803;-74
2023/03/03 23:16:04;;;;;;;;;10.75;10.75;;;;;;;;5029242;28;9522;-71
2023/03/03 23:18:29;;;;;;;;;12.50;10.75;;;;;;;;5029121;28;8881;-71
2023/03/03 23:20:55;;;;;;;;;7.00;3.50;;;;;;;;5024222;28;8838;-69
2023/03/03 23:23:21;;;;;;;;;3.75;2.50;;;;;;;;5007944;28;8850;-69
2023/03/03 23:25:46;;;;;;;;;9.50;7.75;;;;;;;;5009327;28;8810;-70
2023/03/03 23:28:14;;;;;;;;;7.00;4.50;;;;;;;;5041309;28;8887;-70
2023/03/03 23:30:39;;;;;;;;;3.00;2.00;;;;;;;;5013187;28;8794;-71
2023/03/03 23:33:05;;;;;;;;;2.00;2.00;;;;;;;;5013936;28;11508;-69
2023/03/03 23:35:30;;;;;;;;;1.00;1.00;;;;;;;;5014123;28;8794;-70
2023/03/03 23:37:55;;;;;;;;;4.00;2.00;;;;;;;;5014490;28;8794;-70
2023/03/03 23:40:21;;;;;;;;;2.00;2.00;;;;;;;;5013952;28;8806;-70
2023/03/03 23:42:46;;;;;;;;;2.50;1.50;;;;;;;;5013713;28;8830;-71
2023/03/03 23:45:12;;;;;;;;;2.00;2.00;;;;;;;;5013806;28;8806;-71
2023/03/03 23:47:37;;;;;;;;;1.00;1.00;;;;;;;;5013731;28;8814;-70
2023/03/03 23:50:03;;;;;;;;;1.00;1.00;;;;;;;;5013880;28;8786;-69
2023/03/03 23:52:28;;;;;;;;;2.00;2.00;;;;;;;;5045359;28;8840;-70
2023/03/03 23:54:53;;;;;;;;;4.75;2.00;;;;;;;;5013570;28;8795;-70
2023/03/03 23:57:19;;;;;;;;;5.50;1.00;;;;;;;;5013690;28;8802;-70
2023/03/03 23:59:44;;;;;;;;;2.00;1.00;;;;;;;;5013518;28;8806;-70
